Time;durP1;ratioP1;P1;durP2;ratioP2;P2;SDS_P1;SDS_P2;PMS_P1;PMS_P2;Temp;Humidity;BMP_temperature;BMP_pressure;BME280_temperature;BME280_humidity;BME280_pressure;Samples;Min_cycle;Max_cycle;Signal;HPM_P1;HPM_P2
2021/09/05 00:00:45;;;;;;;19.67;8.27;;;;;;;14.02;77.69;102136.97;4881662;29;20111;-86
2021/09/05 00:03:11;;;;;;;18.35;9.02;;;;;;;14.04;77.90;102137.78;4883586;29;20061;-86
2021/09/05 00:05:47;;;;;;;17.45;7.72;;;;;;;14.01;77.76;102135.25;4883199;29;20085;-86
2021/09/05 00:08:16;;;;;;;17.35;8.45;;;;;;;13.98;78.05;102138.91;4882822;29;20032;-85
2021/09/05 00:10:41;;;;;;;15.50;8.32;;;;;;;13.99;78.23;102132.69;4854101;29;20036;-85
2021/09/05 00:13:07;;;;;;;16.55;8.48;;;;;;;13.93;78.58;102123.16;4898506;29;20080;-85
2021/09/05 00:15:36;;;;;;;15.32;8.48;;;;;;;13.91;77.93;102127.72;4896545;29;20036;-86
2021/09/05 00:18:06;;;;;;;18.60;8.55;;;;;;;13.90;78.35;102130.44;4895684;29;20440;-84
2021/09/05 00:20:38;;;;;;;16.65;8.60;;;;;;;13.86;77.68;102139.47;4881126;29;20051;-85
2021/09/05 00:23:08;;;;;;;15.60;7.85;;;;;;;13.84;78.18;102134.25;4850872;29;20040;-85
2021/09/05 00:25:40;;;;;;;14.95;7.75;;;;;;;13.81;77.94;102134.38;4912910;29;20029;-85
2021/09/05 00:28:16;;;;;;;16.85;8.15;;;;;;;13.77;77.75;102136.34;4867382;29;20033;-85
2021/09/05 00:31:00;;;;;;;17.42;8.40;;;;;;;13.73;78.02;102129.41;4912988;29;20025;-84
2021/09/05 00:33:47;;;;;;;15.70;7.88;;;;;;;13.72;78.24;102130.34;4875288;29;20047;-84
2021/09/05 00:36:14;;;;;;;17.63;8.35;;;;;;;13.70;78.27;102130.44;4904027;23;20064;-84
2021/09/05 00:38:44;;;;;;;15.50;8.02;;;;;;;13.67;77.80;102127.91;4912985;29;20041;-85
2021/09/05 00:41:15;;;;;;;18.42;8.70;;;;;;;13.63;77.61;102136.97;4882135;29;20060;-86
2021/09/05 00:44:01;;;;;;;15.30;7.80;;;;;;;13.59;77.74;102127.38;4867191;29;20036;-85
2021/09/05 00:46:35;;;;;;;17.10;8.30;;;;;;;13.55;77.58;102134.66;4899570;29;20028;-86
2021/09/05 00:49:08;;;;;;;18.80;8.80;;;;;;;13.51;78.27;102130.38;4898898;29;20028;-86
2021/09/05 00:51:46;;;;;;;13.60;8.20;;;;;;;13.45;77.93;102134.16;4884071;29;20033;-86
2021/09/05 00:54:16;;;;;;;16.42;8.05;;;;;;;13.43;78.25;102135.19;4883138;29;20036;-85
2021/09/05 00:56:46;;;;;;;17.05;8.00;;;;;;;13.42;78.05;102138.75;4883273;29;20035;-86
2021/09/05 00:59:19;;;;;;;19.08;9.50;;;;;;;13.41;78.40;102137.91;4882386;29;20052;-86
2021/09/05 01:01:45;;;;;;;15.23;8.15;;;;;;;13.38;78.17;102135.38;4866763;29;20037;-85
2021/09/05 01:04:13;;;;;;;15.38;8.23;;;;;;;13.42;78.03;102144.94;4867297;29;20120;-85
2021/09/05 01:06:47;;;;;;;18.38;8.25;;;;;;;13.41;77.75;102145.00;4897415;29;20042;-85
2021/09/05 01:09:16;;;;;;;17.42;9.07;;;;;;;13.38;77.54;102139.81;4882596;29;20065;-85
2021/09/05 01:11:45;;;;;;;17.38;8.35;;;;;;;13.33;77.49;102140.91;4898397;29;20037;-85
2021/09/05 01:14:14;;;;;;;19.10;9.38;;;;;;;13.36;78.20;102147.84;4911919;29;20056;-85
2021/09/05 01:16:51;;;;;;;16.23;8.25;;;;;;;13.35;77.57;102145.28;4866397;29;20043;-85
2021/09/05 01:19:50;;;;;;;17.23;8.48;;;;;;;13.33;77.64;102140.91;4873529;29;20049;-85
2021/09/05 01:22:19;;;;;;;15.35;8.15;;;;;;;13.38;78.10;102139.81;4872913;29;20136;-85
2021/09/05 01:24:51;;;;;;;18.00;8.40;;;;;;;13.36;77.77;102134.56;4855540;29;20037;-84
2021/09/05 01:27:17;;;;;;;15.00;8.25;;;;;;;13.32;77.92;102128.53;4869724;29;20034;-85
2021/09/05 01:29:52;;;;;;;15.68;8.45;;;;;;;13.32;77.68;102135.63;4853155;29;20101;-84
2021/09/05 01:32:23;;;;;;;20.20;9.02;;;;;;;13.31;78.40;102131.25;4853232;29;20030;-85
2021/09/05 01:34:54;;;;;;;17.45;8.63;;;;;;;13.30;78.19;102133.03;4839299;29;20519;-85
2021/09/05 01:37:26;;;;;;;18.60;9.05;;;;;;;13.29;78.80;102131.31;4869690;29;20073;-84
2021/09/05 01:39:57;;;;;;;19.20;8.55;;;;;;;13.30;78.59;102138.34;4870293;29;20045;-84
2021/09/05 01:42:27;;;;;;;19.65;8.77;;;;;;;13.26;78.62;102136.75;4855418;29;20034;-85
2021/09/05 01:44:53;;;;;;;20.92;9.73;;;;;;;13.23;78.58;102133.38;4855596;29;20386;-84
2021/09/05 01:47:26;;;;;;;22.70;9.07;;;;;;;13.25;78.73;102139.47;4854942;29;20045;-85
2021/09/05 01:50:03;;;;;;;19.10;8.65;;;;;;;13.24;78.88;102143.94;4855548;29;20124;-86
2021/09/05 01:52:36;;;;;;;20.35;9.00;;;;;;;13.28;79.06;102144.66;4884946;29;20044;-84
2021/09/05 01:55:11;;;;;;;16.13;8.13;;;;;;;13.19;79.41;102141.47;4872626;29;20113;-85
2021/09/05 01:57:40;;;;;;;14.43;8.38;;;;;;;13.16;79.15;102149.56;4890232;29;20044;-85
2021/09/05 02:00:06;;;;;;;16.30;8.50;;;;;;;13.15;78.92;102154.94;4877875;29;20071;-85
2021/09/05 02:02:45;;;;;;;19.05;9.45;;;;;;;13.10;79.12;102156.97;4905769;29;20044;-84
2021/09/05 02:05:10;;;;;;;;;;;;;;;13.08;79.03;102154.38;4907911;29;20036;-84
2021/09/05 02:07:37;;;;;;;21.80;9.32;;;;;;;13.03;79.02;102154.56;4906448;29;20294;-86
2021/09/05 02:10:17;;;;;;;17.02;8.45;;;;;;;12.99;79.46;102150.28;4906132;29;20020;-84
2021/09/05 02:12:46;;;;;;;17.20;9.13;;;;;;;13.00;78.79;102154.69;4910514;29;20044;-85
2021/09/05 02:15:16;;;;;;;17.48;9.25;;;;;;;12.98;78.92;102150.34;4911330;29;20021;-85
2021/09/05 02:17:51;;;;;;;19.67;9.07;;;;;;;12.95;78.96;102149.59;4908559;29;20037;-84
2021/09/05 02:20:23;;;;;;;14.27;8.30;;;;;;;12.93;78.73;102159.41;4894566;29;20365;-84
2021/09/05 02:22:53;;;;;;;16.95;8.90;;;;;;;12.90;78.67;102159.53;4890643;29;20040;-83
2021/09/05 02:25:19;;;;;;;17.80;8.60;;;;;;;12.89;78.80;102154.28;4892331;29;20464;-84
2021/09/05 02:27:49;;;;;;;19.50;8.30;;;;;;;12.87;78.22;102153.47;4876299;29;20041;-84
2021/09/05 02:30:19;;;;;;;18.60;9.35;;;;;;;12.89;78.09;102156.94;4907657;29;20048;-84
2021/09/05 02:32:52;;;;;;;17.25;8.48;;;;;;;12.87;77.74;102159.66;4891219;29;20028;-84
2021/09/05 02:35:21;;;;;;;18.67;9.30;;;;;;;12.79;78.62;102162.63;4907776;29;20040;-84
2021/09/05 02:38:00;;;;;;;19.30;9.77;;;;;;;12.75;78.99;102163.69;4886142;29;20043;-84
2021/09/05 02:40:26;;;;;;;20.45;9.65;;;;;;;12.78;78.63;102154.72;4871803;29;20455;-84
2021/09/05 02:42:51;;;;;;;22.58;9.57;;;;;;;12.75;79.25;102152.19;4888593;29;20056;-84
2021/09/05 02:45:17;;;;;;;18.35;9.02;;;;;;;12.74;78.88;102156.63;4887692;29;20041;-84
2021/09/05 02:47:43;;;;;;;21.38;10.07;;;;;;;12.73;78.57;102154.03;4887956;29;20021;-85
2021/09/05 02:50:10;;;;;;;18.70;9.57;;;;;;;12.72;78.64;102158.50;4858102;29;20033;-86
2021/09/05 02:52:36;;;;;;;18.80;9.23;;;;;;;12.69;77.89;102155.97;4888738;29;20039;-84
2021/09/05 02:55:07;;;;;;;18.67;8.85;;;;;;;12.64;78.02;102155.28;4885942;29;20041;-85
2021/09/05 02:57:38;;;;;;;16.77;8.80;;;;;;;12.62;78.20;102151.81;4887249;29;20112;-84
2021/09/05 03:00:05;;;;;;;17.58;9.10;;;;;;;12.63;77.94;102151.75;4886018;29;20051;-84
2021/09/05 03:02:32;;;;;;;22.13;9.52;;;;;;;12.61;78.32;102155.41;4870586;29;20544;-83
2021/09/05 03:04:58;;;;;;;16.88;9.57;;;;;;;12.63;78.19;102159.72;4886135;29;20056;-84
2021/09/05 03:07:30;;;;;;;21.70;10.30;;;;;;;12.63;78.63;102153.56;4886358;29;20365;-83
2021/09/05 03:10:01;;;;;;;16.90;9.65;;;;;;;12.65;78.13;102159.66;4887563;29;20029;-83
2021/09/05 03:12:30;;;;;;;19.25;10.40;;;;;;;12.66;78.40;102158.75;4872907;29;20029;-83
2021/09/05 03:15:00;;;;;;;16.92;9.23;;;;;;;12.64;78.18;102158.81;4887695;29;20029;-84
2021/09/05 03:17:27;;;;;;;23.90;9.77;;;;;;;12.61;77.97;102150.09;4887314;29;20033;-85
2021/09/05 03:19:55;;;;;;;14.98;8.55;;;;;;;12.57;77.53;102152.88;4888436;29;20029;-85
2021/09/05 03:22:22;;;;;;;15.25;8.63;;;;;;;12.56;77.33;102145.00;4892384;29;20450;-84
2021/09/05 03:24:49;;;;;;;20.80;9.60;;;;;;;12.51;77.74;102150.47;4891968;29;20051;-84
2021/09/05 03:27:14;;;;;;;17.63;9.27;;;;;;;12.51;77.52;102152.25;4890019;29;20041;-84
2021/09/05 03:29:40;;;;;;;20.70;9.88;;;;;;;12.48;77.96;102157.69;4890558;29;20040;-85
2021/09/05 03:32:06;;;;;;;17.33;9.77;;;;;;;12.47;78.48;102159.50;4890512;29;20033;-84
2021/09/05 03:34:32;;;;;;;21.75;9.73;;;;;;;12.52;77.98;102162.81;4890292;29;20029;-85
2021/09/05 03:36:57;;;;;;;25.00;11.20;;;;;;;12.53;77.89;102153.94;4916750;29;20060;-85
2021/09/05 03:39:23;;;;;;;21.75;10.57;;;;;;;12.55;77.95;102152.06;4926998;29;20037;-84
2021/09/05 03:41:49;;;;;;;22.38;10.18;;;;;;;12.57;78.41;102154.66;4907292;29;20044;-85
2021/09/05 03:44:15;;;;;;;25.85;10.60;;;;;;;12.57;78.11;102152.00;4924051;29;20080;-83
2021/09/05 03:46:42;;;;;;;23.58;10.95;;;;;;;12.57;77.94;102146.72;4927185;29;20072;-83
2021/09/05 03:49:13;;;;;;;21.92;10.93;;;;;;;12.60;78.14;102153.69;4912407;29;20048;-85
2021/09/05 03:51:48;;;;;;;23.42;10.70;;;;;;;12.60;78.14;102161.66;4912617;29;20079;-84
2021/09/05 03:54:29;;;;;;;21.88;9.68;;;;;;;12.56;78.39;102156.47;4907222;29;20055;-84
2021/09/05 03:56:56;;;;;;;18.30;9.82;;;;;;;12.53;78.48;102163.69;4916800;29;20035;-85
2021/09/05 03:59:26;;;;;;;18.25;9.90;;;;;;;12.53;78.40;102159.25;4917233;29;20044;-84
2021/09/05 04:01:53;;;;;;;19.73;9.50;;;;;;;12.52;78.35;102160.16;4899290;29;20040;-84
2021/09/05 04:04:28;;;;;;;18.52;9.35;;;;;;;12.46;78.32;102155.97;4899100;29;20036;-85
2021/09/05 04:07:02;;;;;;;19.67;9.90;;;;;;;12.45;78.14;102164.88;4913934;29;20037;-85
2021/09/05 04:12:13;;;;;;;25.08;10.20;;;;;;;12.43;78.51;102153.44;4885815;29;20029;-84
2021/09/05 04:14:43;;;;;;;19.77;10.75;;;;;;;12.42;78.57;102159.69;4898346;29;20108;-84
2021/09/05 04:17:10;;;;;;;21.02;10.70;;;;;;;12.41;78.67;102157.09;4898270;29;20066;-84
2021/09/05 04:19:35;;;;;;;23.55;10.82;;;;;;;12.35;78.48;102152.03;4897903;29;20123;-84
2021/09/05 04:22:03;;;;;;;32.33;12.35;;;;;;;12.33;78.56;102154.75;4915095;29;20052;-83
2021/09/05 04:24:48;;;;;;;21.52;11.15;;;;;;;12.35;78.56;102149.38;4913901;29;20047;-84
2021/09/05 04:27:49;;;;;;;22.38;10.82;;;;;;;12.37;79.36;102151.03;4915646;29;20088;-85
2021/09/05 04:30:27;;;;;;;26.98;11.93;;;;;;;12.37;79.19;102147.50;4884277;29;20032;-84
2021/09/05 04:32:58;;;;;;;27.08;12.23;;;;;;;12.38;79.52;102143.94;4893473;29;20029;-83
2021/09/05 04:35:25;;;;;;;22.73;10.45;;;;;;;12.38;79.10;102158.06;4911264;23;20057;-84
2021/09/05 04:37:51;;;;;;;21.73;10.50;;;;;;;12.37;79.04;102152.81;4897367;29;20037;-85
2021/09/05 04:40:16;;;;;;;22.30;10.98;;;;;;;12.38;78.78;102154.56;4879378;29;20104;-84
2021/09/05 04:42:42;;;;;;;21.50;10.10;;;;;;;12.39;78.79;102165.13;4891486;29;20028;-85
2021/09/05 04:45:08;;;;;;;19.77;10.50;;;;;;;12.36;78.78;102161.72;4892498;29;20036;-85
2021/09/05 04:47:34;;;;;;;20.55;9.95;;;;;;;12.35;78.48;102168.78;4877578;29;20028;-86
2021/09/05 04:50:00;;;;;;;17.35;9.25;;;;;;;12.35;78.15;102173.25;4909079;29;20028;-86
2021/09/05 04:52:26;;;;;;;23.00;10.48;;;;;;;12.40;78.95;102173.91;4911261;29;20033;-85
2021/09/05 04:54:51;;;;;;;20.52;9.85;;;;;;;12.43;78.61;102184.41;4914731;29;20029;-84
2021/09/05 04:57:17;;;;;;;20.10;9.77;;;;;;;12.40;78.30;102181.88;4903163;29;20072;-84
2021/09/05 04:59:42;;;;;;;19.73;10.10;;;;;;;12.39;78.65;102182.81;4905585;29;20028;-84
2021/09/05 05:02:07;;;;;;;18.30;9.75;;;;;;;12.37;78.84;102179.34;4922594;29;20048;-85
2021/09/05 05:04:33;;;;;;;18.67;9.98;;;;;;;12.34;78.52;102183.00;4922571;29;20032;-85
2021/09/05 05:06:58;;;;;;;19.20;10.15;;;;;;;12.31;78.72;102183.97;4922090;29;20101;-85
2021/09/05 05:09:24;;;;;;;21.35;9.07;;;;;;;12.32;78.88;102190.13;4922056;29;20028;-84
2021/09/05 05:11:49;;;;;;;17.98;9.90;;;;;;;12.31;79.41;102197.25;4922673;29;20043;-84
2021/09/05 05:14:15;;;;;;;19.42;9.20;;;;;;;12.32;79.07;102200.75;4907314;29;20076;-85
2021/09/05 05:16:40;;;;;;;24.63;11.38;;;;;;;12.29;79.70;102199.09;4923159;29;20041;-84
2021/09/05 05:19:05;;;;;;;22.92;10.45;;;;;;;12.30;79.41;102198.16;4907392;29;20106;-85
2021/09/05 05:21:31;;;;;;;18.92;10.57;;;;;;;12.26;79.34;102200.97;4907559;29;20040;-83
2021/09/05 05:23:57;;;;;;;22.00;9.77;;;;;;;12.24;78.97;102193.09;4908035;29;20040;-83
2021/09/05 05:26:24;;;;;;;18.95;9.88;;;;;;;12.25;78.87;102200.13;4923897;29;20024;-83
2021/09/05 05:28:49;;;;;;;20.27;10.25;;;;;;;12.27;79.42;102195.63;4907789;29;20044;-84
2021/09/05 05:31:15;;;;;;;21.48;10.65;;;;;;;12.27;79.89;102197.41;4923977;29;20080;-84
2021/09/05 05:33:40;;;;;;;22.67;10.88;;;;;;;12.30;79.86;102198.16;4907606;29;20059;-84
2021/09/05 05:36:06;;;;;;;20.00;10.50;;;;;;;12.36;79.66;102205.03;4923624;29;20149;-84
2021/09/05 05:38:31;;;;;;;23.63;10.70;;;;;;;12.44;79.50;102199.41;4923410;29;20088;-84
2021/09/05 05:40:57;;;;;;;26.48;11.50;;;;;;;12.53;79.70;102207.00;4922657;29;20049;-84
2021/09/05 05:43:23;;;;;;;23.48;11.63;;;;;;;12.62;79.70;102205.78;4923281;29;20096;-84
2021/09/05 05:45:51;;;;;;;24.35;11.75;;;;;;;12.74;80.26;102209.72;4907081;29;20028;-85
2021/09/05 05:48:17;;;;;;;27.77;13.07;;;;;;;12.82;80.13;102206.75;4921910;29;20060;-84
2021/09/05 05:50:42;;;;;;;24.75;12.40;;;;;;;12.93;79.87;102211.63;4902377;29;20075;-85
2021/09/05 05:53:08;;;;;;;28.38;12.57;;;;;;;13.06;80.13;102209.31;4920977;29;20021;-85
2021/09/05 05:55:35;;;;;;;28.90;13.13;;;;;;;13.20;80.54;102211.41;4923334;29;20024;-85
2021/09/05 05:58:03;;;;;;;27.08;12.63;;;;;;;13.32;79.69;102215.31;4922854;29;20040;-84
2021/09/05 06:00:30;;;;;;;27.15;12.63;;;;;;;13.32;80.55;102216.19;4907229;29;20024;-85
2021/09/05 06:02:56;;;;;;;26.52;12.98;;;;;;;13.44;80.27;102220.13;4922955;29;20451;-82
2021/09/05 06:05:21;;;;;;;23.33;11.63;;;;;;;13.52;80.41;102217.19;4921392;29;20055;-84
2021/09/05 06:07:48;;;;;;;26.95;12.95;;;;;;;13.55;80.10;102225.03;4922293;29;20045;-85
2021/09/05 06:10:13;;;;;;;25.23;13.00;;;;;;;13.58;80.39;102216.03;4905362;29;20020;-85
2021/09/05 06:12:39;;;;;;;26.27;13.07;;;;;;;13.65;80.48;102222.78;4922936;29;20080;-85
2021/09/05 06:15:05;;;;;;;25.52;12.40;;;;;;;13.74;80.28;102220.66;4923066;29;20035;-85
2021/09/05 06:17:31;;;;;;;26.27;13.23;;;;;;;13.83;79.97;102213.16;4922737;29;20040;-85
2021/09/05 06:19:56;;;;;;;25.98;12.57;;;;;;;13.87;79.95;102219.19;4923015;29;20029;-86
2021/09/05 06:22:22;;;;;;;23.65;11.25;;;;;;;13.89;80.03;102216.44;4922716;29;20051;-84
2021/09/05 06:24:49;;;;;;;22.05;11.68;;;;;;;13.99;79.87;102219.56;4922971;29;20021;-85
2021/09/05 06:27:14;;;;;;;22.52;11.23;;;;;;;13.99;80.19;102216.91;4922937;29;20016;-84
2021/09/05 06:29:40;;;;;;;24.17;11.98;;;;;;;14.16;79.88;102226.78;4922417;29;20061;-85
2021/09/05 06:32:07;;;;;;;24.27;12.43;;;;;;;14.23;79.75;102220.22;4922874;29;20040;-84
2021/09/05 06:34:34;;;;;;;29.58;14.20;;;;;;;14.37;80.09;102224.06;4922512;29;20048;-85
2021/09/05 06:37:01;;;;;;;28.45;14.48;;;;;;;14.49;79.93;102226.13;4922082;29;20029;-83
2021/09/05 06:39:27;;;;;;;30.38;13.82;;;;;;;14.66;80.10;102238.63;4905467;29;20056;-81
2021/09/05 06:41:54;;;;;;;30.40;15.00;;;;;;;14.70;80.64;102232.22;4920951;29;20036;-84
2021/09/05 06:44:20;;;;;;;33.22;15.75;;;;;;;14.88;80.23;102234.09;4913494;29;20100;-84
2021/09/05 06:46:46;;;;;;;32.75;16.25;;;;;;;14.92;80.76;102233.00;4917309;29;20092;-84
2021/09/05 06:49:12;;;;;;;33.83;15.95;;;;;;;15.04;80.18;102232.41;4894709;29;20043;-87
2021/09/05 06:51:38;;;;;;;34.65;16.10;;;;;;;15.22;79.69;102236.88;4897871;29;20092;-85
2021/09/05 06:54:04;;;;;;;34.33;15.02;;;;;;;15.37;79.30;102240.56;4921260;29;20080;-86
2021/09/05 06:56:29;;;;;;;31.83;14.63;;;;;;;15.48;79.22;102253.34;4889693;29;20092;-85
2021/09/05 06:58:55;;;;;;;30.50;14.50;;;;;;;15.55;78.86;102239.59;4889942;29;20025;-86
2021/09/05 07:01:20;;;;;;;29.27;14.55;;;;;;;15.68;78.69;102246.97;4922207;29;20041;-87
2021/09/05 07:03:46;;;;;;;33.33;14.50;;;;;;;15.56;78.99;102246.66;4921997;29;20040;-84
2021/09/05 07:06:11;;;;;;;31.90;16.30;;;;;;;15.69;78.52;102248.69;4921846;29;20015;-85
2021/09/05 07:08:37;;;;;;;32.67;16.10;;;;;;;15.88;77.99;102242.38;4921922;29;20096;-86
2021/09/05 07:11:02;;;;;;;27.92;15.25;;;;;;;16.04;77.59;102243.31;4890053;29;20024;-86
2021/09/05 07:13:28;;;;;;;28.20;14.90;;;;;;;16.04;77.43;102245.97;4920782;29;20037;-85
2021/09/05 07:15:54;;;;;;;27.17;15.23;;;;;;;16.06;77.15;102259.25;4905336;29;20039;-85
2021/09/05 07:18:22;;;;;;;23.60;14.02;;;;;;;16.27;76.49;102261.69;4921248;29;20035;-85
2021/09/05 07:20:47;;;;;;;25.23;13.93;;;;;;;16.20;76.83;102255.81;4905788;29;20211;-84
2021/09/05 07:23:13;;;;;;;28.42;14.23;;;;;;;16.44;75.82;102266.09;4914590;29;20096;-85
2021/09/05 07:25:38;;;;;;;24.15;12.82;;;;;;;16.31;76.32;102268.59;4904822;29;20088;-84
2021/09/05 07:28:04;;;;;;;28.88;14.00;;;;;;;16.56;75.39;102261.88;4921835;29;20047;-84
2021/09/05 07:30:29;;;;;;;28.05;14.23;;;;;;;16.54;75.07;102264.63;4921690;29;20032;-85
2021/09/05 07:32:55;;;;;;;25.35;13.32;;;;;;;16.71;74.87;102252.13;4905638;29;20019;-86
2021/09/05 07:35:20;;;;;;;24.58;13.20;;;;;;;16.81;74.13;102261.38;4921547;29;20116;-84
2021/09/05 07:37:46;;;;;;;22.38;12.70;;;;;;;16.90;73.17;102267.09;4921506;29;20028;-84
2021/09/05 07:40:12;;;;;;;25.38;13.10;;;;;;;17.13;72.72;102263.13;4921056;29;20053;-84
2021/09/05 07:42:37;;;;;;;19.27;11.65;;;;;;;17.25;71.74;102268.72;4919577;29;20033;-83
2021/09/05 07:45:03;;;;;;;26.25;12.43;;;;;;;17.39;70.83;102267.91;4918610;29;20093;-83
2021/09/05 07:47:28;;;;;;;23.10;12.70;;;;;;;17.41;70.34;102274.91;4919643;29;20021;-84
2021/09/05 07:49:54;;;;;;;22.55;11.80;;;;;;;17.46;70.64;102281.78;4919895;29;20040;-82
2021/09/05 07:52:19;;;;;;;20.60;12.20;;;;;;;17.18;70.68;102281.56;4920976;29;20038;-82
2021/09/05 07:54:45;;;;;;;19.75;11.70;;;;;;;17.33;69.84;102286.97;4903435;29;20089;-85
2021/09/05 07:57:10;;;;;;;20.20;10.85;;;;;;;17.19;70.13;102285.97;4919353;29;20056;-81
2021/09/05 07:59:35;;;;;;;22.23;11.45;;;;;;;17.44;69.71;102297.91;4919237;29;20017;-83
2021/09/05 08:02:01;;;;;;;20.58;11.25;;;;;;;17.72;68.75;102296.25;4916556;29;20032;-82
2021/09/05 08:04:26;;;;;;;18.13;10.68;;;;;;;17.56;68.64;102289.16;4912654;29;20155;-83
2021/09/05 08:06:52;;;;;;;21.85;11.18;;;;;;;17.79;68.60;102292.22;4918253;29;20112;-80
2021/09/05 08:09:17;;;;;;;19.10;10.93;;;;;;;17.98;67.88;102292.94;4921324;29;20032;-83
2021/09/05 08:11:43;;;;;;;17.20;10.82;;;;;;;18.07;67.62;102289.69;4921400;29;20105;-83
2021/09/05 08:14:08;;;;;;;19.77;10.52;;;;;;;18.01;66.50;102304.28;4919468;29;20557;-82
2021/09/05 08:16:36;;;;;;;15.75;10.35;;;;;;;17.98;66.81;102298.28;4918825;29;20092;-83
2021/09/05 08:19:01;;;;;;;19.35;10.77;;;;;;;18.35;65.60;102311.22;4920717;29;20021;-83
2021/09/05 08:21:27;;;;;;;17.75;10.15;;;;;;;18.47;64.76;102313.13;4916853;29;20056;-83
2021/09/05 08:23:52;;;;;;;17.20;9.80;;;;;;;18.71;64.32;102311.66;4900127;29;20033;-83
2021/09/05 08:26:19;;;;;;;20.60;10.35;;;;;;;18.60;63.50;102310.53;4915459;29;20032;-84
2021/09/05 08:28:44;;;;;;;19.42;10.13;;;;;;;18.70;63.85;102312.63;4914955;29;20073;-84
2021/09/05 08:31:10;;;;;;;15.32;8.98;;;;;;;18.97;63.20;102317.16;4915926;29;20012;-83
2021/09/05 08:33:35;;;;;;;16.50;8.98;;;;;;;18.70;62.84;102321.53;4915026;29;20117;-82
2021/09/05 08:36:02;;;;;;;15.02;9.45;;;;;;;18.95;61.80;102313.69;4900780;23;20057;-82
2021/09/05 08:38:28;;;;;;;18.17;9.60;;;;;;;18.89;61.50;102314.97;4883201;29;20487;-84
2021/09/05 08:40:53;;;;;;;16.40;9.18;;;;;;;18.73;62.46;102315.97;4881966;29;20069;-84
2021/09/05 08:43:20;;;;;;;18.83;9.88;;;;;;;18.82;61.83;102319.84;4886046;29;20033;-85
2021/09/05 08:45:45;;;;;;;17.30;9.43;;;;;;;19.07;61.25;102322.75;4882565;29;20033;-85
2021/09/05 08:48:14;;;;;;;16.25;8.68;;;;;;;19.01;60.68;102324.88;4881513;29;20028;-85
2021/09/05 08:50:39;;;;;;;14.45;8.30;;;;;;;19.15;60.54;102323.13;4882479;29;20528;-84
2021/09/05 08:53:05;;;;;;;12.82;8.00;;;;;;;19.50;59.41;102327.94;4866721;29;20021;-86
2021/09/05 08:55:30;;;;;;;11.73;7.47;;;;;;;19.49;57.65;102333.41;4874777;29;20038;-85
2021/09/05 08:57:56;;;;;;;16.27;8.48;;;;;;;19.41;57.44;102324.06;4901299;29;20028;-85
2021/09/05 09:00:23;;;;;;;11.50;7.38;;;;;;;19.52;57.95;102327.84;4886221;29;20061;-85
2021/09/05 09:02:50;;;;;;;11.02;7.45;;;;;;;19.45;57.69;102318.50;4905392;29;20053;-86
2021/09/05 09:05:15;;;;;;;14.20;7.40;;;;;;;19.71;56.75;102322.06;4906610;29;20048;-84
2021/09/05 09:07:47;;;;;;;11.85;7.60;;;;;;;19.58;56.33;102318.53;4905912;29;20033;-83
2021/09/05 09:10:15;;;;;;;12.68;7.07;;;;;;;19.80;56.23;102321.44;4907370;29;20428;-83
2021/09/05 09:12:49;;;;;;;11.82;7.03;;;;;;;20.17;54.84;102325.25;4885697;29;20025;-83
2021/09/05 09:15:25;;;;;;;11.15;7.07;;;;;;;20.02;54.68;102328.03;4865412;29;20044;-84
2021/09/05 09:18:03;;;;;;;14.88;6.93;;;;;;;20.12;54.39;102330.94;4864256;29;20393;-84
2021/09/05 09:20:42;;;;;;;11.13;6.28;;;;;;;20.06;53.79;102327.81;4864694;29;20037;-83
2021/09/05 09:23:12;;;;;;;10.77;6.45;;;;;;;20.36;53.48;102323.94;4866180;29;20085;-84
2021/09/05 09:25:38;;;;;;;8.95;6.32;;;;;;;20.12;52.89;102328.25;4867716;29;20357;-84
2021/09/05 09:28:46;;;;;;;10.23;6.18;;;;;;;20.21;54.29;102331.25;4905212;29;20055;-84
2021/09/05 09:31:19;;;;;;;11.38;6.68;;;;;;;20.54;52.90;102327.09;4845282;29;20042;-84
2021/09/05 09:33:50;;;;;;;;;;;;;;;20.61;51.87;102330.22;4805640;29;20030;-85
2021/09/05 09:36:18;;;;;;;13.00;6.47;;;;;;;20.63;51.40;102323.75;4856105;29;19908;-84
2021/09/05 09:38:44;;;;;;;12.18;6.72;;;;;;;21.01;50.71;102321.94;4842860;29;20041;-85
2021/09/05 09:41:16;;;;;;;16.25;6.60;;;;;;;21.63;49.64;102331.69;4844636;29;20057;-84
2021/09/05 09:43:57;;;;;;;12.07;6.73;;;;;;;22.87;46.08;102326.50;4846537;29;20049;-85
2021/09/05 09:46:25;;;;;;;9.57;6.83;;;;;;;23.52;44.71;102327.47;4843688;29;20037;-85
2021/09/05 09:48:58;;;;;;;11.18;6.57;;;;;;;24.95;41.84;102332.22;4852014;29;20049;-86
2021/09/05 09:51:23;;;;;;;9.05;7.07;;;;;;;24.91;41.58;102323.53;4831699;29;20042;-86
2021/09/05 09:53:49;;;;;;;13.18;6.97;;;;;;;25.22;40.76;102331.53;4829578;29;20030;-88
2021/09/05 09:56:17;;;;;;;10.65;6.57;;;;;;;25.24;40.25;102334.94;4813085;29;20034;-86
2021/09/05 09:58:44;;;;;;;8.95;6.25;;;;;;;24.85;41.05;102334.91;4829494;29;20030;-85
2021/09/05 10:01:11;;;;;;;12.35;6.43;;;;;;;25.48;40.41;102324.69;4855661;29;20037;-85
2021/09/05 10:03:36;;;;;;;9.55;7.05;;;;;;;26.02;39.48;102329.53;4853682;29;20037;-84
2021/09/05 10:06:02;;;;;;;10.48;6.65;;;;;;;25.60;40.95;102325.34;4869835;29;20043;-85
2021/09/05 10:08:30;;;;;;;9.88;6.45;;;;;;;25.72;40.35;102321.50;4902374;29;20039;-86
2021/09/05 10:10:58;;;;;;;10.48;7.15;;;;;;;25.37;41.32;102312.16;4873550;29;20063;-84
2021/09/05 10:13:31;;;;;;;12.05;6.55;;;;;;;24.69;42.42;102327.31;4872039;29;20021;-86
2021/09/05 10:15:57;;;;;;;10.40;6.90;;;;;;;25.91;40.46;102314.31;4890232;29;20123;-84
2021/09/05 10:18:23;;;;;;;10.75;6.68;;;;;;;25.25;41.51;102322.25;4877264;29;20051;-85
2021/09/05 10:20:49;;;;;;;12.50;7.45;;;;;;;24.88;41.30;102319.25;4907359;29;20029;-84
2021/09/05 10:23:28;;;;;;;9.75;6.82;;;;;;;24.89;41.53;102317.41;4888963;29;20024;-87
2021/09/05 10:25:54;;;;;;;11.60;6.97;;;;;;;24.90;41.38;102319.09;4902299;29;20040;-83
2021/09/05 10:28:38;;;;;;;14.55;6.85;;;;;;;24.83;41.82;102316.09;4884993;29;20056;-84
2021/09/05 10:31:04;;;;;;;11.88;6.90;;;;;;;24.73;42.38;102317.91;4869539;29;20169;-84
2021/09/05 10:33:42;;;;;;;11.57;7.07;;;;;;;24.38;43.80;102304.75;4901476;29;20027;-84
2021/09/05 10:36:12;;;;;;;11.70;7.20;;;;;;;24.11;43.49;102316.16;4900691;29;20131;-84
2021/09/05 10:38:41;;;;;;;11.30;7.10;;;;;;;23.56;44.37;102319.97;4868738;29;20088;-85
2021/09/05 10:41:09;;;;;;;12.60;6.45;;;;;;;24.30;43.68;102317.25;4900320;29;20044;-85
2021/09/05 10:43:47;;;;;;;10.20;6.22;;;;;;;24.50;43.91;102321.72;4886124;29;20087;-86
2021/09/05 10:46:13;;;;;;;10.52;6.65;;;;;;;24.84;42.69;102323.22;4900532;29;20063;-83
2021/09/05 10:48:44;;;;;;;11.52;7.38;;;;;;;24.26;43.71;102316.66;4884518;29;20092;-84
2021/09/05 10:51:13;;;;;;;11.50;7.15;;;;;;;23.64;45.48;102314.78;4903450;29;20028;-84
2021/09/05 10:53:55;;;;;;;15.57;7.30;;;;;;;23.87;45.58;102311.91;4883733;29;20060;-84
2021/09/05 10:56:21;;;;;;;13.20;7.30;;;;;;;23.69;46.18;102315.22;4900687;29;20103;-84
2021/09/05 10:58:57;;;;;;;10.43;6.25;;;;;;;23.31;46.77;102313.94;4900870;29;20095;-83
2021/09/05 11:01:24;;;;;;;14.82;7.28;;;;;;;22.56;48.11;102310.09;4885170;29;20044;-85
2021/09/05 11:04:12;;;;;;;13.60;6.68;;;;;;;22.44;48.74;102316.47;4902101;29;20384;-85
2021/09/05 11:07:06;;;;;;;10.48;6.53;;;;;;;22.56;48.61;102311.94;4903125;29;20055;-83
2021/09/05 11:09:34;;;;;;;10.27;6.50;;;;;;;22.14;50.00;102306.22;4904309;29;20032;-83
2021/09/05 11:12:25;;;;;;;9.77;6.70;;;;;;;22.37;49.33;102297.28;4889152;29;20088;-82
2021/09/05 11:14:51;;;;;;;13.48;6.47;;;;;;;22.57;49.03;102316.34;4908406;29;20056;-83
2021/09/05 11:17:30;;;;;;;10.85;6.13;;;;;;;22.72;49.17;102307.03;4891214;29;20044;-83
2021/09/05 11:20:26;;;;;;;11.90;6.72;;;;;;;22.78;49.44;102309.22;4890326;29;20093;-83
2021/09/05 11:22:52;;;;;;;12.05;7.15;;;;;;;22.36;49.78;102309.00;4903729;29;20044;-84
2021/09/05 11:25:18;;;;;;;11.50;6.97;;;;;;;22.68;49.54;102310.97;4889822;29;20041;-84